createdAt,value
2022-12-10T00:01:26.318Z,97295.53
2022-12-10T00:03:53.697Z,97293.00
2022-12-10T00:06:23.053Z,97292.75
2022-12-10T00:08:49.942Z,97285.44
2022-12-10T00:11:18.640Z,97292.75
2022-12-10T00:13:46.832Z,97287.13
2022-12-10T00:16:16.078Z,97292.81
2022-12-10T00:18:44.028Z,97290.81
2022-12-10T00:21:14.038Z,97287.91
2022-12-10T00:23:41.457Z,97300.50
2022-12-10T00:26:14.338Z,97297.66
2022-12-10T00:28:43.014Z,97265.09
2022-12-10T00:31:18.534Z,97296.97
2022-12-10T00:33:46.598Z,97292.94
2022-12-10T00:36:25.476Z,97296.25
2022-12-10T00:38:53.445Z,97303.13
2022-12-10T00:41:20.219Z,97295.59
2022-12-10T00:43:47.422Z,97304.47
2022-12-10T00:46:16.096Z,97298.41
2022-12-10T00:48:43.458Z,97302.28
2022-12-10T00:51:21.815Z,97302.28
2022-12-10T00:53:50.571Z,97305.25
2022-12-10T00:56:24.962Z,97305.16
2022-12-10T00:58:52.669Z,97307.16
2022-12-10T01:01:28.348Z,97308.13
2022-12-10T01:03:57.653Z,97309.91
2022-12-10T01:06:28.118Z,97314.94
2022-12-10T01:08:57.747Z,97309.75
2022-12-10T01:11:28.911Z,97298.34
2022-12-10T01:13:55.942Z,97309.63
2022-12-10T01:16:24.000Z,97320.94
2022-12-10T01:18:54.472Z,97329.34
2022-12-10T01:21:21.785Z,97322.88
2022-12-10T01:23:50.992Z,97324.75
2022-12-10T01:26:20.645Z,97318.78
2022-12-10T01:28:48.162Z,97318.44
2022-12-10T01:31:17.161Z,97323.34
2022-12-10T01:33:43.958Z,97324.88
2022-12-10T01:36:17.659Z,97328.81
2022-12-10T01:38:44.728Z,97328.63
2022-12-10T01:41:16.986Z,97331.47
2022-12-10T01:43:55.848Z,97334.88
2022-12-10T01:46:25.255Z,97334.59
2022-12-10T01:48:52.227Z,97339.81
2022-12-10T01:51:20.313Z,97335.91
2022-12-10T01:53:48.485Z,97345.91
2022-12-10T01:56:17.789Z,97341.50
2022-12-10T01:58:45.552Z,97341.38
2022-12-10T02:01:17.905Z,97346.03
2022-12-10T02:03:50.553Z,97342.06
2022-12-10T02:06:17.188Z,97345.09
2022-12-10T02:09:12.082Z,97342.31
2022-12-10T02:11:45.378Z,97347.28
2022-12-10T02:14:26.370Z,97345.56
2022-12-10T02:17:00.743Z,97347.78
2022-12-10T02:19:57.806Z,97346.16
2022-12-10T02:22:27.897Z,97339.78
2022-12-10T02:24:56.834Z,97333.19
2022-12-10T02:27:40.207Z,97344.59
2022-12-10T02:30:09.316Z,97299.66
2022-12-10T02:35:51.748Z,97344.09
2022-12-10T02:38:24.756Z,97341.09
2022-12-10T02:40:55.714Z,97279.94
2022-12-10T02:43:24.663Z,97274.75
2022-12-10T02:45:52.103Z,97266.28
2022-12-10T02:48:20.382Z,97287.34
2022-12-10T02:50:47.481Z,97338.56
2022-12-10T02:53:14.379Z,97234.03
2022-12-10T02:56:10.209Z,97238.50
2022-12-10T02:59:13.250Z,97294.41
2022-12-10T03:01:55.749Z,97345.00
2022-12-10T03:04:40.426Z,97278.31
2022-12-10T03:07:17.828Z,97336.63
2022-12-10T03:09:52.546Z,97275.19
2022-12-10T03:12:36.962Z,97326.41
2022-12-10T03:15:08.396Z,97324.44
2022-12-10T03:17:37.306Z,97299.19
2022-12-10T03:20:05.330Z,97321.72
2022-12-10T03:22:33.644Z,97357.91
2022-12-10T03:25:01.899Z,97281.47
2022-12-10T03:27:30.651Z,97341.53
2022-12-10T03:29:59.678Z,97251.13
2022-12-10T03:32:29.286Z,97347.84
2022-12-10T03:34:59.463Z,97296.09
2022-12-10T03:37:28.236Z,97329.66
2022-12-10T03:39:56.574Z,97333.84
2022-12-10T03:42:23.363Z,97200.78
2022-12-10T03:44:53.388Z,97265.19
2022-12-10T03:47:20.870Z,97284.31
2022-12-10T03:49:48.474Z,97333.78
2022-12-10T03:52:15.391Z,97301.38
2022-12-10T03:54:42.267Z,97258.72
2022-12-10T03:57:09.011Z,97315.59
2022-12-10T03:59:35.585Z,97303.63
2022-12-10T04:02:02.667Z,97280.66
2022-12-10T04:04:29.396Z,97307.19
2022-12-10T04:06:56.209Z,97274.78
2022-12-10T04:09:22.914Z,97266.34
2022-12-10T04:11:49.550Z,97298.97
2022-12-10T04:14:16.294Z,97284.25
2022-12-10T04:16:43.107Z,97284.56
2022-12-10T04:19:15.603Z,97314.91
2022-12-10T04:21:44.173Z,97297.63
2022-12-10T04:24:12.037Z,97294.66
2022-12-10T04:26:38.794Z,97357.16
2022-12-10T04:29:07.594Z,97244.28
2022-12-10T04:31:34.281Z,97265.78
2022-12-10T04:34:00.878Z,97292.22
2022-12-10T04:36:27.616Z,97332.31
2022-12-10T04:38:54.226Z,97281.50
2022-12-10T04:41:21.031Z,97299.22
2022-12-10T04:43:47.769Z,97294.31
2022-12-10T04:46:14.623Z,97253.78
2022-12-10T04:48:41.230Z,97268.56
2022-12-10T04:51:07.976Z,97270.88
2022-12-10T04:53:34.616Z,97292.84
2022-12-10T04:56:01.221Z,97284.44
2022-12-10T04:58:28.252Z,97264.13
2022-12-10T05:00:54.920Z,97280.06
2022-12-10T05:03:23.373Z,97297.63
2022-12-10T05:05:50.040Z,97263.38
2022-12-10T05:08:16.645Z,97270.41
2022-12-10T05:10:43.530Z,97256.28
2022-12-10T05:13:10.162Z,97294.28
2022-12-10T05:15:39.517Z,97354.47
2022-12-10T05:18:06.233Z,97245.41
2022-12-10T05:20:33.025Z,97278.31
2022-12-10T05:22:59.595Z,97306.94
2022-12-10T05:25:26.296Z,97263.44
2022-12-10T05:27:53.152Z,97292.06
2022-12-10T05:30:19.905Z,97348.19
2022-12-10T05:32:46.465Z,97315.19
2022-12-10T05:35:13.149Z,97365.47
2022-12-10T05:37:39.735Z,97342.84
2022-12-10T05:40:07.500Z,97316.50
2022-12-10T05:42:34.481Z,97303.91
2022-12-10T05:45:01.201Z,97351.63
2022-12-10T05:47:27.753Z,97321.94
2022-12-10T05:49:54.537Z,97312.53
2022-12-10T05:52:22.557Z,97355.66
2022-12-10T05:54:49.173Z,97305.94
2022-12-10T05:57:15.748Z,97312.03
2022-12-10T05:59:43.203Z,97307.81
2022-12-10T06:02:09.765Z,97293.00
2022-12-10T06:04:36.618Z,97309.03
2022-12-10T06:07:07.977Z,97334.72
2022-12-10T06:09:37.871Z,97372.72
2022-12-10T06:12:04.678Z,97340.63
2022-12-10T06:14:31.560Z,97362.41
2022-12-10T06:16:58.216Z,97333.13
2022-12-10T06:19:24.866Z,97323.50
2022-12-10T06:21:51.441Z,97216.47
2022-12-10T06:24:18.194Z,97323.91
2022-12-10T06:26:44.824Z,97374.66
2022-12-10T06:29:11.548Z,97335.63
2022-12-10T06:31:38.233Z,97336.25
2022-12-10T06:34:04.884Z,97336.94
2022-12-10T06:36:31.796Z,97379.31
2022-12-10T06:38:58.589Z,97318.06
2022-12-10T06:41:25.198Z,97355.97
2022-12-10T06:43:51.951Z,97358.81
2022-12-10T06:46:21.446Z,97419.47
2022-12-10T06:48:48.429Z,97374.84
2022-12-10T06:51:15.186Z,97365.63
2022-12-10T06:53:42.633Z,97426.88
2022-12-10T06:56:13.775Z,97424.16
2022-12-10T06:58:40.668Z,97318.31
2022-12-10T07:01:10.822Z,97373.00
2022-12-10T07:03:38.280Z,97356.94
2022-12-10T07:06:06.264Z,97345.91
2022-12-10T07:08:33.435Z,97407.44
2022-12-10T07:11:05.257Z,97250.31
2022-12-10T07:13:32.089Z,97329.31
2022-12-10T07:15:59.757Z,97377.75
2022-12-10T07:18:27.850Z,97363.03
2022-12-10T07:20:54.679Z,97136.34
2022-12-10T07:23:22.424Z,97448.06
2022-12-10T07:25:48.989Z,97397.75
2022-12-10T07:28:15.811Z,97359.75
2022-12-10T07:30:42.880Z,97441.09
2022-12-10T07:33:09.543Z,97372.06
2022-12-10T07:35:40.644Z,97428.41
2022-12-10T07:38:09.051Z,97371.13
2022-12-10T07:40:35.612Z,97393.72
2022-12-10T07:43:02.254Z,97371.25
2022-12-10T07:45:29.063Z,97455.81
2022-12-10T07:47:55.734Z,97390.56
2022-12-10T07:50:22.357Z,97446.81
2022-12-10T07:52:49.016Z,97422.59
2022-12-10T07:55:16.733Z,97439.47
2022-12-10T07:57:44.222Z,97377.13
2022-12-10T08:00:13.548Z,97470.00
2022-12-10T08:02:40.745Z,97403.97
2022-12-10T08:05:07.674Z,97370.06
2022-12-10T08:07:34.861Z,97428.34
2022-12-10T08:10:01.819Z,97405.06
2022-12-10T08:12:28.470Z,97391.84
2022-12-10T08:14:55.097Z,97450.00
2022-12-10T08:17:21.859Z,97409.16
2022-12-10T08:19:48.505Z,97453.56
2022-12-10T08:22:15.419Z,97432.16
2022-12-10T08:24:42.093Z,97352.63
2022-12-10T08:27:08.862Z,97406.44
2022-12-10T08:29:35.591Z,97415.53
2022-12-10T08:32:02.260Z,97423.44
2022-12-10T08:34:30.111Z,97460.34
2022-12-10T08:36:56.993Z,97456.94
2022-12-10T08:39:23.587Z,97364.34
2022-12-10T08:41:50.275Z,97455.06
2022-12-10T08:44:19.705Z,97418.00
2022-12-10T08:46:46.379Z,97449.59
2022-12-10T08:49:15.105Z,97447.44
2022-12-10T08:51:42.179Z,97421.94
2022-12-10T08:54:08.936Z,97450.69
2022-12-10T08:56:35.787Z,97435.16
2022-12-10T08:59:06.457Z,97377.16
2022-12-10T09:01:34.454Z,97439.53
2022-12-10T09:04:01.110Z,97484.75
2022-12-10T09:06:28.894Z,97485.66
2022-12-10T09:08:57.348Z,97461.53
2022-12-10T09:11:28.383Z,97510.84
2022-12-10T09:13:55.719Z,97409.28
2022-12-10T09:16:30.913Z,97461.44
2022-12-10T09:18:58.532Z,97515.66
2022-12-10T09:21:25.558Z,97334.56
2022-12-10T09:23:52.962Z,97418.28
2022-12-10T09:26:21.126Z,97401.38
2022-12-10T09:28:52.565Z,97388.56
2022-12-10T09:31:20.957Z,97464.59
2022-12-10T09:33:50.675Z,97425.22
2022-12-10T09:36:26.393Z,96811.31
2022-12-10T09:39:00.204Z,97176.72
2022-12-10T09:41:32.752Z,97447.97
2022-12-10T09:44:19.864Z,97518.38
2022-12-10T09:46:58.828Z,97487.94
2022-12-10T09:49:31.405Z,97470.47
2022-12-10T09:52:11.384Z,97426.16
2022-12-10T09:54:44.309Z,97448.44
2022-12-10T10:00:30.970Z,97504.47
2022-12-10T10:03:01.667Z,97438.03
2022-12-10T10:05:32.229Z,97377.72
2022-12-10T10:08:03.350Z,97457.88
2022-12-10T10:10:35.078Z,97503.00
2022-12-10T10:13:07.902Z,97503.66
2022-12-10T10:15:37.523Z,97340.47
2022-12-10T10:18:18.691Z,97446.00
2022-12-10T10:20:46.410Z,97425.28
2022-12-10T10:23:16.015Z,97457.50
2022-12-10T10:25:43.517Z,97510.19
2022-12-10T10:28:19.776Z,97464.78
2022-12-10T10:30:46.684Z,97428.19
2022-12-10T10:33:15.418Z,97461.56
2022-12-10T10:35:57.219Z,97516.63
2022-12-10T10:38:28.105Z,97527.66
2022-12-10T10:41:00.442Z,97517.13
2022-12-10T10:43:40.177Z,97527.28
2022-12-10T10:46:22.185Z,97515.94
2022-12-10T10:48:50.702Z,97460.19
2022-12-10T10:51:21.865Z,97515.53
2022-12-10T10:53:53.445Z,97441.69
2022-12-10T10:56:31.934Z,97512.00
2022-12-10T10:58:58.862Z,97510.88
2022-12-10T11:01:43.691Z,97495.88
2022-12-10T11:04:11.089Z,97511.72
2022-12-10T11:06:37.916Z,97463.63
2022-12-10T11:09:06.020Z,97486.59
2022-12-10T11:11:41.048Z,97502.88
2022-12-10T11:14:35.235Z,97453.09
2022-12-10T11:17:19.674Z,97506.63
2022-12-10T11:20:01.949Z,97471.59
2022-12-10T11:22:31.496Z,97438.06
2022-12-10T11:24:58.837Z,97445.31
2022-12-10T11:27:58.191Z,97510.63
2022-12-10T11:30:27.169Z,97513.31
2022-12-10T13:24:10.305Z,97500.19
2022-12-10T13:27:01.979Z,97544.16
2022-12-10T13:29:28.746Z,97455.19
2022-12-10T13:32:20.171Z,97531.19
2022-12-10T13:34:48.275Z,97506.47
2022-12-10T13:37:19.080Z,97518.69
2022-12-10T13:40:02.894Z,97553.78
2022-12-10T13:42:33.054Z,97498.03
2022-12-10T13:45:23.931Z,97511.50
2022-12-10T13:47:56.044Z,97524.75
2022-12-10T13:50:25.592Z,97561.63
2022-12-10T13:53:07.485Z,97566.53
2022-12-10T13:55:46.362Z,97567.72
2022-12-10T13:58:37.594Z,97571.78
2022-12-10T14:01:21.457Z,97471.50
2022-12-10T14:03:48.078Z,97573.16
2022-12-10T14:06:23.401Z,97533.53
2022-12-10T14:08:56.044Z,97575.66
2022-12-10T14:11:30.146Z,97532.84
2022-12-10T14:14:01.550Z,97517.72
2022-12-10T14:16:32.732Z,97574.44
2022-12-10T14:19:04.489Z,97581.78
2022-12-10T14:21:36.512Z,97495.31
2022-12-10T14:24:04.113Z,97585.22
2022-12-10T14:26:36.054Z,97525.22
2022-12-10T14:29:08.883Z,97585.47
2022-12-10T14:31:40.744Z,97526.72
2022-12-10T14:34:09.661Z,97537.19
2022-12-10T14:36:45.941Z,97520.44
2022-12-10T14:39:19.325Z,97561.44
2022-12-10T14:41:49.697Z,97587.19
2022-12-10T14:44:18.312Z,97502.72
2022-12-10T14:46:47.814Z,97550.16
2022-12-10T14:49:24.936Z,97593.25
2022-12-10T14:51:51.724Z,97546.88
2022-12-10T14:54:26.234Z,97558.03
2022-12-10T14:56:55.475Z,97526.13
2022-12-10T14:59:47.000Z,97602.75
2022-12-10T15:02:25.530Z,97553.63
2022-12-10T15:04:53.451Z,97581.69
2022-12-10T15:07:25.019Z,97545.22
2022-12-10T15:09:53.811Z,97596.00
2022-12-10T15:12:33.429Z,97582.81
2022-12-10T15:15:07.779Z,97598.06
2022-12-10T15:18:00.959Z,97582.81
2022-12-10T15:20:48.965Z,97609.81
2022-12-10T15:23:15.666Z,97613.84
2022-12-10T15:25:47.643Z,97534.34
2022-12-10T15:28:26.668Z,97615.28
2022-12-10T15:30:57.277Z,97582.84
2022-12-10T15:33:39.994Z,97563.34
2022-12-10T15:36:07.260Z,97593.19
2022-12-10T15:38:34.247Z,97580.13
2022-12-10T15:41:22.373Z,97640.22
2022-12-10T15:43:59.638Z,97588.59
2022-12-10T15:46:26.497Z,97569.22
2022-12-10T15:48:53.074Z,97565.16
2022-12-10T15:51:19.973Z,97619.00
2022-12-10T15:53:47.445Z,97582.59
2022-12-10T15:56:14.202Z,97647.91
2022-12-10T15:58:42.161Z,97624.91
2022-12-10T16:01:14.080Z,97615.59
2022-12-10T16:03:41.118Z,97415.94
2022-12-10T16:06:08.320Z,97557.94
2022-12-10T16:08:35.593Z,97616.31
2022-12-10T16:11:15.078Z,97584.78
2022-12-10T16:13:49.653Z,97585.44
2022-12-10T16:16:16.392Z,97554.19
2022-12-10T16:18:43.115Z,97596.22
2022-12-10T16:21:09.953Z,97593.25
2022-12-10T16:23:36.931Z,97643.72
2022-12-10T16:26:14.026Z,97563.94
2022-12-10T16:28:40.885Z,97646.84
2022-12-10T16:31:11.821Z,97633.34
2022-12-10T16:33:38.641Z,97594.06
2022-12-10T16:36:06.002Z,97518.66
2022-12-10T16:38:32.908Z,97557.00
2022-12-10T16:41:00.551Z,97598.97
2022-12-10T16:43:31.289Z,97506.44
2022-12-10T16:45:58.184Z,97627.19
2022-12-10T16:48:25.355Z,97578.53
2022-12-10T16:50:53.699Z,97552.22
2022-12-10T16:53:30.687Z,97553.16
2022-12-10T16:55:57.698Z,97284.03
2022-12-10T16:58:25.615Z,97451.91
2022-12-10T17:00:55.003Z,97621.72
2022-12-10T17:03:26.080Z,97609.88
2022-12-10T17:05:56.048Z,97588.31
2022-12-10T17:08:24.038Z,97548.66
2022-12-10T17:10:52.434Z,97615.59
2022-12-10T17:13:23.244Z,97585.91
2022-12-10T17:15:51.077Z,97563.53
2022-12-10T17:18:18.633Z,97652.03
2022-12-10T17:20:47.296Z,97655.44
2022-12-10T17:23:14.243Z,97473.69
2022-12-10T17:25:41.536Z,97655.06
2022-12-10T17:28:17.544Z,97498.78
2022-12-10T17:30:53.362Z,97567.88
2022-12-10T17:33:25.219Z,97617.28
2022-12-10T17:35:59.056Z,97479.69
2022-12-10T17:38:26.600Z,97476.94
2022-12-10T17:40:55.627Z,97519.88
2022-12-10T17:43:22.498Z,97636.91
2022-12-10T17:45:49.625Z,97480.75
2022-12-10T17:48:22.931Z,97669.78
2022-12-10T17:50:49.868Z,97672.75
2022-12-10T17:53:16.816Z,97517.72
2022-12-10T17:55:50.095Z,97623.25
2022-12-10T17:58:18.217Z,97590.13
2022-12-10T18:00:55.301Z,97562.16
2022-12-10T18:03:22.172Z,97616.00
2022-12-10T18:05:52.483Z,97639.03
2022-12-10T18:08:25.737Z,97421.13
2022-12-10T18:10:55.613Z,97523.59
2022-12-10T18:13:24.609Z,97199.84
2022-12-10T18:15:51.297Z,97266.34
2022-12-10T18:18:19.201Z,97668.63
2022-12-10T18:20:47.410Z,97681.59
2022-12-10T18:23:16.679Z,97673.41
2022-12-10T18:25:48.051Z,97661.69
2022-12-10T18:28:23.895Z,97685.97
2022-12-10T18:30:50.648Z,97621.06
2022-12-10T18:33:17.472Z,97623.50
2022-12-10T18:35:44.864Z,97583.72
2022-12-10T18:38:14.616Z,97685.75
2022-12-10T18:40:41.381Z,97623.81
2022-12-10T18:43:08.016Z,97594.59
2022-12-10T18:45:35.214Z,97662.50
2022-12-10T18:48:01.796Z,97619.28
2022-12-10T18:50:30.355Z,97594.97
2022-12-10T18:52:57.340Z,97604.13
2022-12-10T18:55:25.381Z,97559.13
2022-12-10T18:58:01.185Z,97575.75
2022-12-10T19:00:34.085Z,97552.59
2022-12-10T19:03:02.973Z,97594.59
2022-12-10T19:05:34.113Z,97626.09
2022-12-10T19:08:01.291Z,97559.94
2022-12-10T19:10:27.984Z,97595.41
2022-12-10T19:12:54.746Z,97693.97
2022-12-10T19:15:22.115Z,97659.59
2022-12-10T19:17:50.150Z,97667.78
2022-12-10T19:20:23.084Z,97691.63
2022-12-10T19:22:53.033Z,97233.13
2022-12-10T19:25:19.843Z,97691.41
2022-12-10T19:27:46.843Z,97592.72
2022-12-10T19:30:19.881Z,97476.16
2022-12-10T19:32:46.636Z,97630.34
2022-12-10T19:35:16.698Z,97697.97
2022-12-10T19:37:44.601Z,97678.72
2022-12-10T19:40:25.547Z,97630.44
2022-12-10T19:42:52.352Z,97631.94
2022-12-10T19:45:20.840Z,97633.72
2022-12-10T19:47:52.325Z,97625.41
2022-12-10T19:50:22.700Z,97697.41
2022-12-10T19:52:50.784Z,97628.81
2022-12-10T19:55:20.904Z,97627.88
2022-12-10T19:57:47.921Z,97667.97
2022-12-10T20:00:26.648Z,97697.69
2022-12-10T20:02:53.344Z,97623.34
2022-12-10T20:05:20.760Z,97604.97
2022-12-10T20:07:49.106Z,97591.19
2022-12-10T20:10:30.029Z,97699.31
2022-12-10T20:12:57.077Z,97622.13
2022-12-10T20:15:25.346Z,97586.13
2022-12-10T20:17:52.755Z,97564.03
2022-12-10T20:20:29.500Z,97608.75
2022-12-10T20:22:56.253Z,97611.59
2022-12-10T20:25:23.180Z,97691.63
2022-12-10T20:27:51.446Z,97631.09
2022-12-10T20:30:29.379Z,97602.75
2022-12-10T20:32:57.538Z,97685.81
2022-12-10T20:35:26.025Z,97601.66
2022-12-10T20:37:52.807Z,97681.81
2022-12-10T20:40:32.085Z,97670.41
2022-12-10T20:42:59.660Z,97668.19
2022-12-10T20:45:26.475Z,97586.13
2022-12-10T20:47:53.224Z,97675.28
2022-12-10T20:50:20.088Z,97681.00
2022-12-10T20:52:47.196Z,97608.19
2022-12-10T20:55:14.745Z,97536.34
2022-12-10T20:57:41.645Z,97610.00
2022-12-10T21:00:16.624Z,97690.31
2022-12-10T21:02:44.293Z,97646.41
2022-12-10T21:05:12.223Z,97627.16
2022-12-10T21:07:39.250Z,97601.66
2022-12-10T21:10:06.647Z,97650.47
2022-12-10T21:12:33.345Z,97609.56
2022-12-10T21:15:05.753Z,97565.91
2022-12-10T21:17:35.668Z,97683.97
2022-12-10T21:20:02.296Z,97627.94
2022-12-10T21:22:28.959Z,97581.59
2022-12-10T21:24:55.608Z,97653.16
2022-12-10T21:27:23.127Z,97646.63
2022-12-10T21:29:49.761Z,97660.84
2022-12-10T21:32:16.438Z,97657.28
2022-12-10T21:34:43.188Z,97639.41
2022-12-10T21:37:10.657Z,97673.75
2022-12-10T21:39:38.931Z,97617.59
2022-12-10T21:42:05.661Z,97640.75
2022-12-10T21:44:32.965Z,97627.47
2022-12-10T21:46:59.816Z,97611.81
2022-12-10T21:49:26.896Z,97615.25
2022-12-10T21:51:54.164Z,97666.22
2022-12-10T21:54:20.794Z,97657.38
2022-12-10T21:56:47.482Z,97501.31
2022-12-10T21:59:14.159Z,97619.69
2022-12-10T22:01:40.842Z,97615.19
2022-12-10T22:04:07.507Z,97606.22
2022-12-10T22:06:34.218Z,97564.22
2022-12-10T22:09:00.795Z,97619.53
2022-12-10T22:11:27.537Z,97605.94
2022-12-10T22:13:55.286Z,97640.13
2022-12-10T22:16:22.679Z,97590.38
2022-12-10T22:18:50.533Z,97678.84
2022-12-10T22:21:17.439Z,97591.97
2022-12-10T22:23:44.060Z,97628.63
2022-12-10T22:26:10.988Z,97581.19
2022-12-10T22:28:37.616Z,97608.59
2022-12-10T22:31:09.051Z,97656.16
2022-12-10T22:33:37.514Z,97636.38
2022-12-10T22:36:06.465Z,97622.50
2022-12-10T22:38:34.291Z,97604.34
2022-12-10T22:41:06.027Z,97671.25
2022-12-10T22:43:50.856Z,97668.13
2022-12-10T22:46:21.112Z,97634.72
2022-12-10T22:48:49.107Z,97606.63
2022-12-10T22:51:16.579Z,97597.22
2022-12-10T22:53:46.097Z,97619.66
2022-12-10T22:56:14.636Z,97593.59
2022-12-10T22:58:42.932Z,97639.13
2022-12-10T23:01:19.646Z,97629.34
2022-12-10T23:03:47.437Z,97557.78
2022-12-10T23:06:14.238Z,97642.31
2022-12-10T23:08:41.567Z,97649.19
2022-12-10T23:11:09.836Z,97595.25
2022-12-10T23:13:38.531Z,97615.34
2022-12-10T23:16:12.034Z,97636.47
2022-12-10T23:18:40.020Z,97578.78
2022-12-10T23:21:25.490Z,97611.50
2022-12-10T23:23:54.663Z,97613.97
2022-12-10T23:26:22.570Z,97636.75
2022-12-10T23:28:49.527Z,97628.25
2022-12-10T23:31:16.710Z,97619.53
2022-12-10T23:33:43.986Z,97597.28
2022-12-10T23:36:12.682Z,97634.13
2022-12-10T23:38:39.778Z,97664.09
2022-12-10T23:41:08.735Z,97609.25
2022-12-10T23:43:36.975Z,97662.06
2022-12-10T23:46:04.676Z,97632.66
2022-12-10T23:48:32.072Z,97585.81
2022-12-10T23:51:02.903Z,97603.84
2022-12-10T23:53:30.928Z,97604.66
2022-12-10T23:55:58.180Z,97620.09
2022-12-10T23:58:25.509Z,97591.97
